Time;durP1;ratioP1;P1;durP2;ratioP2;P2;SDS_P1;SDS_P2;PMS_P1;PMS_P2;Temp;Humidity;BMP_temperature;BMP_pressure;BME280_temperature;BME280_humidity;BME280_pressure;Samples;Min_cycle;Max_cycle;Signal;HPM_P1;HPM_P2
2023/03/03 00:00:58;;;;;;;53.77;25.33;;;-1.50;99.90;-2.50;100636;;;;579703;244;24063;-72
2023/03/03 00:03:26;;;;;;;46.47;24.33;;;-1.50;99.90;-2.60;100628;;;;579732;244;24317;-72
2023/03/03 00:05:54;;;;;;;47.27;20.47;;;-1.50;99.90;-2.50;100630;;;;579747;244;24115;-78
2023/03/03 00:08:22;;;;;;;47.13;24.13;;;-1.50;99.90;-2.50;100625;;;;579865;244;24046;-76
2023/03/03 00:10:54;;;;;;;48.67;24.57;;;-1.40;99.90;-2.50;100610;;;;579662;244;24056;-76
2023/03/03 00:13:20;;;;;;;47.40;24.10;;;-1.40;99.90;-2.50;100614;;;;579023;244;24107;-76
2023/03/03 00:15:52;;;;;;;48.10;23.57;;;-1.40;99.90;-2.50;100618;;;;576283;244;24100;-75
2023/03/03 00:18:35;;;;;;;48.43;23.53;;;-1.50;99.90;-2.50;100611;;;;579172;244;24057;-73
2023/03/03 00:21:03;;;;;;;47.63;23.83;;;-1.40;99.90;-2.50;100604;;;;579356;244;24103;-76
2023/03/03 00:23:37;;;;;;;52.95;26.77;;;-1.40;99.90;-2.40;100588;;;;573741;244;35272;-79
2023/03/03 00:26:20;;;;;;;42.73;20.50;;;-1.40;99.90;-2.40;100597;;;;576751;244;24093;-78
2023/03/03 00:28:48;;;;;;;43.57;20.57;;;-1.30;99.90;-2.40;100586;;;;579111;244;24073;-75
2023/03/03 00:31:19;;;;;;;39.00;20.03;;;-1.30;99.90;-2.40;100575;;;;577029;244;24061;-78
2023/03/03 00:33:54;;;;;;;42.53;20.90;;;-1.30;99.90;-2.40;100580;;;;579232;244;24070;-74
2023/03/03 00:36:36;;;;;;;36.80;19.13;;;-1.30;99.90;-2.40;100560;;;;577055;244;24099;-76
2023/03/03 00:39:26;;;;;;;35.77;18.00;;;-1.30;99.90;-2.40;100559;;;;577829;244;24111;-77
2023/03/03 00:41:57;;;;;;;33.83;16.43;;;-1.40;99.90;-2.50;100570;;;;587135;244;24115;-76
2023/03/03 00:44:55;;;;;;;39.47;20.42;;;-1.40;99.90;-2.50;100567;;;;571570;244;35164;-77
2023/03/03 00:47:31;;;;;;;33.87;17.10;;;-1.40;99.90;-2.50;100573;;;;580381;243;24080;-78
2023/03/03 00:50:07;;;;;;;30.47;15.40;;;-1.40;99.90;-2.50;100568;;;;577550;243;24105;-75
2023/03/03 00:52:38;;;;;;;31.10;15.83;;;-1.40;99.90;-2.50;100571;;;;579213;243;24064;-76
2023/03/03 00:55:06;;;;;;;35.03;16.70;;;-1.40;99.90;-2.50;100573;;;;579736;244;24113;-77
2023/03/03 00:57:34;;;;;;;30.37;15.30;;;-1.40;99.90;-2.50;100573;;;;577255;244;24109;-77
2023/03/03 01:00:02;;;;;;;29.93;15.80;;;-1.40;99.90;-2.50;100588;;;;580042;244;24031;-77
2023/03/03 01:02:30;;;;;;;33.50;16.60;;;-1.40;99.90;-2.50;100575;;;;580044;244;24089;-77
2023/03/03 01:04:58;;;;;;;31.20;16.73;;;-1.40;99.90;-2.50;100577;;;;577625;244;24134;-77
2023/03/03 01:07:26;;;;;;;33.63;16.60;;;-1.40;99.90;-2.50;100578;;;;579823;244;24113;-76
2023/03/03 01:09:54;;;;;;;26.97;15.77;;;-1.40;99.90;-2.60;100569;;;;579825;244;24057;-77
2023/03/03 01:12:22;;;;;;;27.77;15.00;;;-1.40;99.90;-2.60;100566;;;;579816;244;24063;-74
2023/03/03 01:14:51;;;;;;;25.27;13.83;;;-1.50;99.90;-2.50;100558;;;;579753;244;24070;-75
2023/03/03 01:17:20;;;;;;;23.53;14.33;;;-1.50;99.90;-2.50;100549;;;;579781;244;24089;-76
2023/03/03 01:19:45;;;;;;;23.60;13.37;;;-1.40;99.90;-2.50;100560;;;;577409;244;24103;-78
2023/03/03 01:22:13;;;;;;;19.87;12.67;;;-1.40;99.90;-2.50;100551;;;;579648;244;24104;-76
2023/03/03 01:24:41;;;;;;;20.50;11.03;;;-1.40;99.90;-2.50;100549;;;;579130;244;24044;-74
2023/03/03 01:27:10;;;;;;;18.27;10.40;;;-1.40;99.90;-2.50;100549;;;;579351;244;24142;-77
2023/03/03 01:29:37;;;;;;;17.00;10.27;;;-1.40;99.90;-2.50;100537;;;;579638;244;24052;-76
2023/03/03 01:32:05;;;;;;;17.13;10.47;;;-1.40;99.90;-2.50;100533;;;;579465;244;24059;-74
2023/03/03 01:34:33;;;;;;;14.60;9.80;;;-1.40;99.90;-2.40;100532;;;;577119;244;24095;-78
2023/03/03 01:37:01;;;;;;;14.47;9.97;;;-1.40;99.90;-2.40;100540;;;;576756;244;24102;-74
2023/03/03 01:39:29;;;;;;;18.35;12.68;;;-1.40;99.90;-2.40;100544;;;;574054;244;35243;-77
2023/03/03 01:41:57;;;;;;;15.67;10.13;;;-1.40;99.90;-2.40;100527;;;;579137;244;24043;-77
2023/03/03 01:44:25;;;;;;;13.37;9.97;;;-1.30;99.90;-2.40;100535;;;;579068;244;24043;-76
2023/03/03 01:46:58;;;;;;;16.03;10.03;;;-1.30;99.90;-2.40;100528;;;;579149;244;24078;-77
2023/03/03 01:49:28;;;;;;;16.67;10.00;;;-1.30;99.90;-2.40;100532;;;;578745;244;25135;-74
2023/03/03 01:52:02;;;;;;;15.93;10.70;;;-1.30;99.90;-2.40;100529;;;;579120;244;24057;-77
2023/03/03 01:54:36;;;;;;;19.98;13.32;;;-1.30;99.90;-2.30;100537;;;;574057;244;35197;-75
2023/03/03 01:57:05;;;;;;;11.13;7.70;;;-1.20;99.90;-2.30;100534;;;;580099;243;24051;-76
2023/03/03 01:59:34;;;;;;;17.17;11.30;;;-1.20;99.90;-2.20;100522;;;;578232;243;24100;-79
2023/03/03 02:02:02;;;;;;;17.60;10.73;;;-1.20;99.90;-2.20;100517;;;;578044;243;24102;-74
2023/03/03 02:04:31;;;;;;;14.93;10.30;;;-1.10;99.90;-2.20;100520;;;;580253;243;24108;-76
2023/03/03 02:07:05;;;;;;;19.43;11.10;;;-1.10;99.90;-2.20;100515;;;;580066;244;24173;-76
2023/03/03 02:09:55;;;;;;;17.73;9.87;;;-1.10;99.90;-2.10;100516;;;;577600;244;24081;-77
2023/03/03 02:12:23;;;;;;;16.27;10.87;;;-1.10;99.90;-2.10;100519;;;;580004;244;24158;-76
2023/03/03 02:14:51;;;;;;;18.00;11.10;;;-1.00;99.90;-2.00;100527;;;;577443;244;24071;-78
2023/03/03 02:17:19;;;;;;;18.67;10.87;;;-1.00;99.90;-2.00;100518;;;;579714;244;24114;-75
2023/03/03 02:20:13;;;;;;;18.37;11.80;;;-0.90;99.90;-1.90;100508;;;;579433;244;24110;-74
2023/03/03 02:23:07;;;;;;;18.50;11.00;;;-0.90;99.90;-1.90;100513;;;;580151;243;24053;-76
2023/03/03 02:25:40;;;;;;;18.20;12.07;;;-0.90;99.90;-1.90;100501;;;;587987;244;24071;-74
2023/03/03 02:28:08;;;;;;;18.63;11.73;;;-0.80;99.90;-1.80;100500;;;;586368;244;24083;-75
2023/03/03 02:30:37;;;;;;;18.80;11.90;;;-0.80;99.90;-1.80;100507;;;;579374;244;24103;-72
2023/03/03 02:33:06;;;;;;;21.33;11.90;;;-0.70;99.90;-1.80;100504;;;;577159;244;24095;-76
2023/03/03 02:35:34;;;;;;;19.17;11.60;;;-0.70;99.90;-1.70;100498;;;;576953;244;24084;-76
2023/03/03 02:38:21;;;;;;;16.80;11.57;;;-0.70;99.90;-1.70;100504;;;;576931;244;24099;-76
2023/03/03 02:41:17;;;;;;;19.17;12.43;;;-0.70;99.90;-1.70;100505;;;;578793;244;24119;-76
2023/03/03 02:43:44;;;;;;;20.50;12.23;;;-0.60;99.90;-1.60;100507;;;;579044;244;25118;-76
2023/03/03 02:46:12;;;;;;;21.03;13.30;;;-0.60;99.90;-1.60;100514;;;;578901;244;25124;-78
2023/03/03 02:48:40;;;;;;;21.43;12.97;;;-0.60;99.90;-1.60;100508;;;;576901;244;24110;-74
2023/03/03 02:51:08;;;;;;;22.70;12.47;;;-0.60;99.90;-1.60;100518;;;;579193;244;24071;-74
2023/03/03 02:53:36;;;;;;;25.30;15.37;;;-0.50;99.90;-1.60;100515;;;;579103;244;24059;-73
2023/03/03 02:56:08;;;;;;;24.17;13.60;;;-0.50;99.90;-1.60;100506;;;;578988;244;24072;-74
2023/03/03 02:58:32;;;;;;;22.87;13.00;;;-0.50;99.90;-1.50;100514;;;;579219;244;24059;-73
2023/03/03 03:01:01;;;;;;;21.00;12.10;;;-0.50;99.90;-1.50;100500;;;;579084;244;24184;-73
2023/03/03 03:03:29;;;;;;;21.90;13.27;;;-0.40;99.90;-1.50;100503;;;;579206;244;24051;-73
2023/03/03 03:05:58;;;;;;;25.37;13.40;;;-0.40;99.90;-1.40;100512;;;;579110;244;24119;-74
2023/03/03 03:08:27;;;;;;;22.93;12.70;;;-0.30;99.90;-1.40;100512;;;;580028;243;24050;-74
2023/03/03 03:10:56;;;;;;;23.70;13.57;;;-0.30;99.90;-1.30;100508;;;;580470;243;24070;-72
2023/03/03 03:13:24;;;;;;;22.13;11.77;;;-0.30;99.90;-1.30;100512;;;;579927;243;24075;-74
2023/03/03 03:15:53;;;;;;;23.93;13.10;;;-0.20;99.90;-1.20;100503;;;;579898;243;24063;-77
2023/03/03 03:18:21;;;;;;;22.30;12.47;;;-0.20;99.90;-1.20;100497;;;;577478;244;24102;-74
2023/03/03 03:20:49;;;;;;;19.60;11.43;;;-0.20;99.90;-1.10;100501;;;;579732;244;24078;-76
2023/03/03 03:23:20;;;;;;;23.30;12.20;;;-0.10;99.90;-1.00;100510;;;;579687;244;24049;-76
2023/03/03 03:25:45;;;;;;;29.95;15.00;;;-0.10;99.90;-1.00;100504;;;;572709;244;35227;-75
2023/03/03 03:28:13;;;;;;;12.27;5.87;;;0.00;99.90;-0.90;100519;;;;579756;244;24130;-75
2023/03/03 03:30:44;;;;;;;16.07;6.30;;;0.10;99.90;-0.80;100523;;;;588259;242;24087;-75
2023/03/03 03:33:09;;;;;;;3.70;2.73;;;0.20;99.90;-0.80;100521;;;;579412;244;24076;-77
2023/03/03 03:35:41;;;;;;;19.40;9.80;;;0.30;99.90;-0.80;100513;;;;577155;244;24117;-73
2023/03/03 03:38:06;;;;;;;21.67;10.83;;;0.30;99.90;-0.70;100517;;;;579455;243;24070;-71
2023/03/03 03:40:33;;;;;;;18.77;9.50;;;0.30;99.90;-0.70;100515;;;;577223;244;24099;-76
2023/03/03 03:43:01;;;;;;;20.80;10.47;;;0.30;99.90;-0.60;100508;;;;576994;244;24111;-77
2023/03/03 03:45:29;;;;;;;17.93;10.17;;;0.40;99.90;-0.60;100506;;;;577026;244;24117;-76
2023/03/03 03:47:57;;;;;;;24.40;11.70;;;0.40;99.90;-0.60;100512;;;;576851;244;24055;-73
2023/03/03 03:50:25;;;;;;;17.10;7.78;;;0.50;99.90;-0.50;100509;;;;571970;244;46120;-75
2023/03/03 03:52:53;;;;;;;11.37;4.30;;;0.50;99.90;-0.50;100510;;;;579051;244;24064;-75
2023/03/03 03:55:24;;;;;;;8.97;4.40;;;0.50;99.90;-0.50;100505;;;;576816;244;24083;-72
2023/03/03 03:57:49;;;;;;;9.07;4.63;;;0.60;99.90;-0.50;100511;;;;576652;244;24070;-73
2023/03/03 04:00:17;;;;;;;8.87;4.77;;;0.60;99.90;-0.40;100513;;;;576810;244;24096;-74
2023/03/03 04:02:45;;;;;;;14.43;5.77;;;0.60;99.90;-0.40;100516;;;;576979;244;24075;-73
2023/03/03 04:05:13;;;;;;;13.23;5.47;;;0.60;99.90;-0.40;100510;;;;576944;244;24049;-74
2023/03/03 04:07:41;;;;;;;11.80;6.43;;;0.70;99.90;-0.30;100503;;;;579284;244;25086;-74
2023/03/03 04:10:09;;;;;;;11.50;5.83;;;0.70;99.90;-0.30;100508;;;;576935;244;24092;-73
2023/03/03 04:12:39;;;;;;;13.00;7.37;;;0.80;99.90;-0.30;100493;;;;576849;244;24064;-74
2023/03/03 04:15:07;;;;;;;13.43;5.23;;;0.80;99.90;-0.20;100489;;;;577011;244;24084;-74
2023/03/03 04:17:35;;;;;;;9.13;4.80;;;0.80;99.90;-0.20;100498;;;;587117;241;24077;-74
2023/03/03 04:20:03;;;;;;;16.57;5.53;;;0.80;99.90;-0.10;100500;;;;577563;243;24079;-74
2023/03/03 04:22:34;;;;;;;9.60;5.17;;;0.90;99.90;-0.10;100496;;;;580383;243;24120;-75
2023/03/03 04:25:04;;;;;;;17.17;6.57;;;0.90;99.90;-0.10;100499;;;;578016;243;24055;-74
2023/03/03 04:27:27;;;;;;;13.93;4.90;;;0.90;99.90;0.00;100495;;;;580021;243;25101;-75
2023/03/03 04:29:55;;;;;;;9.83;5.13;;;1.00;99.90;0.00;100494;;;;577109;244;24053;-75
2023/03/03 04:32:23;;;;;;;12.33;6.17;;;1.00;99.90;0.10;100498;;;;576628;244;24083;-74
2023/03/03 04:34:51;;;;;;;25.67;11.27;;;1.10;99.90;0.10;100491;;;;571578;244;35307;-74
2023/03/03 04:37:19;;;;;;;12.53;7.27;;;1.10;99.90;0.10;100470;;;;576765;244;24067;-72
2023/03/03 04:39:47;;;;;;;8.47;4.43;;;1.10;99.90;0.20;100477;;;;576335;244;24108;-74
2023/03/03 04:42:15;;;;;;;13.37;6.20;;;1.20;99.90;0.20;100461;;;;576340;244;24052;-74
2023/03/03 04:44:43;;;;;;;13.73;6.03;;;1.20;99.90;0.20;100450;;;;576371;244;24090;-75
2023/03/03 04:47:11;;;;;;;7.87;3.80;;;1.20;99.90;0.20;100438;;;;579394;244;24055;-75
2023/03/03 04:49:42;;;;;;;8.23;5.03;;;1.20;99.90;0.20;100438;;;;576392;244;24043;-74
2023/03/03 04:52:07;;;;;;;9.83;5.67;;;1.20;99.90;0.20;100439;;;;579277;244;24098;-75
2023/03/03 04:54:35;;;;;;;16.67;9.20;;;1.20;99.90;0.20;100446;;;;571145;244;35134;-73
2023/03/03 04:57:02;;;;;;;13.57;5.77;;;1.30;99.90;0.30;100452;;;;576091;244;24073;-73
2023/03/03 04:59:31;;;;;;;6.47;2.87;;;1.20;99.90;0.30;100442;;;;576610;244;24067;-77
2023/03/03 05:01:58;;;;;;;10.90;6.07;;;1.30;99.90;0.30;100438;;;;576391;244;24073;-77
2023/03/03 05:04:26;;;;;;;10.47;4.33;;;1.30;99.90;0.30;100431;;;;576350;244;24089;-76
2023/03/03 05:06:56;;;;;;;10.23;5.53;;;1.30;99.90;0.30;100426;;;;576392;244;24127;-74
2023/03/03 05:09:24;;;;;;;12.40;7.00;;;1.30;99.90;0.30;100428;;;;576351;244;24148;-73
2023/03/03 05:11:51;;;;;;;4.30;3.90;;;1.30;99.90;0.30;100435;;;;576365;244;24042;-78
2023/03/03 05:14:19;;;;;;;24.90;11.50;;;1.30;99.90;0.30;100443;;;;571325;244;35331;-77
2023/03/03 05:16:47;;;;;;;12.33;5.37;;;1.30;99.90;0.30;100451;;;;576403;244;24122;-77
2023/03/03 05:19:16;;;;;;;10.20;4.90;;;1.30;99.90;0.30;100449;;;;576415;244;24070;-77
2023/03/03 05:21:44;;;;;;;11.27;6.57;;;1.30;99.90;0.30;100454;;;;576295;244;25089;-74
2023/03/03 05:24:15;;;;;;;10.20;4.13;;;1.30;99.90;0.30;100447;;;;576405;244;24101;-77
2023/03/03 05:26:40;;;;;;;10.07;6.00;;;1.30;99.90;0.30;100453;;;;578983;244;24118;-77
2023/03/03 05:29:08;;;;;;;11.10;7.03;;;1.20;99.90;0.20;100453;;;;579091;244;25251;-76
2023/03/03 05:31:36;;;;;;;4.43;3.47;;;1.20;99.90;0.20;100458;;;;579729;243;24092;-78
2023/03/03 05:34:04;;;;;;;10.73;4.93;;;1.20;99.90;0.20;100461;;;;577646;243;24089;-76
2023/03/03 05:36:32;;;;;;;8.50;4.30;;;1.20;99.90;0.20;100444;;;;577247;243;24071;-79
2023/03/03 05:39:04;;;;;;;10.53;6.17;;;1.20;99.90;0.20;100455;;;;577155;243;25105;-77
2023/03/03 05:41:29;;;;;;;8.80;5.40;;;1.10;99.90;0.10;100452;;;;579840;244;24086;-76
2023/03/03 05:43:57;;;;;;;10.87;6.10;;;1.10;99.90;0.10;100454;;;;576939;244;24092;-76
2023/03/03 05:46:29;;;;;;;17.83;9.52;;;1.10;99.90;0.10;100454;;;;574686;244;35155;-75
2023/03/03 05:48:56;;;;;;;18.80;10.47;;;1.00;99.90;0.10;100464;;;;576577;244;24056;-77
2023/03/03 05:51:25;;;;;;;9.13;5.30;;;1.10;99.90;0.20;100459;;;;576358;244;24050;-78
2023/03/03 05:53:49;;;;;;;6.57;4.27;;;1.10;99.90;0.20;100466;;;;576268;244;25293;-78
2023/03/03 05:56:17;;;;;;;8.53;5.00;;;1.20;99.90;0.30;100459;;;;576560;244;24071;-74
2023/03/03 05:58:45;;;;;;;11.43;5.37;;;1.30;99.90;0.40;100472;;;;576229;244;24146;-77
2023/03/03 06:01:13;;;;;;;11.33;5.77;;;1.30;99.90;0.40;100471;;;;579667;244;24074;-74
2023/03/03 06:03:42;;;;;;;9.03;5.50;;;1.40;99.90;0.40;100461;;;;576599;244;24142;-77
2023/03/03 06:06:11;;;;;;;9.87;6.33;;;1.40;99.90;0.40;100456;;;;576606;244;24039;-75
2023/03/03 06:08:37;;;;;;;9.70;5.10;;;1.40;99.90;0.50;100474;;;;576417;244;24086;-74
2023/03/03 06:11:05;;;;;;;10.63;4.63;;;1.50;99.90;0.60;100475;;;;576380;244;24080;-75
2023/03/03 06:13:34;;;;;;;5.37;3.93;;;1.60;99.90;0.70;100476;;;;579485;244;24056;-77
2023/03/03 06:16:02;;;;;;;13.53;6.67;;;1.60;99.90;0.80;100476;;;;576329;244;24076;-76
2023/03/03 06:18:30;;;;;;;8.90;5.37;;;1.70;99.90;0.80;100476;;;;588472;243;24079;-76
2023/03/03 06:20:58;;;;;;;11.07;6.03;;;1.70;99.90;0.70;100474;;;;576315;244;24110;-74
2023/03/03 06:23:26;;;;;;;6.00;3.33;;;1.70;99.90;0.80;100474;;;;576361;244;24099;-78
2023/03/03 06:25:53;;;;;;;12.53;5.50;;;1.70;99.90;0.80;100481;;;;576409;244;24104;-75
2023/03/03 06:28:21;;;;;;;10.80;5.80;;;1.80;99.90;0.90;100483;;;;575939;244;24072;-76
2023/03/03 06:30:53;;;;;;;5.77;4.07;;;1.90;99.90;1.00;100481;;;;576099;244;24072;-76
2023/03/03 06:33:21;;;;;;;2.87;2.67;;;1.90;99.90;1.10;100485;;;;575952;244;24060;-76
2023/03/03 06:35:53;;;;;;;9.50;4.73;;;2.10;99.90;1.10;100480;;;;579428;244;24066;-76
2023/03/03 06:38:20;;;;;;;9.03;4.13;;;2.10;99.90;1.30;100477;;;;579457;244;24100;-77
2023/03/03 06:40:48;;;;;;;9.43;5.67;;;2.20;99.90;1.40;100481;;;;576324;244;24103;-75
2023/03/03 06:43:17;;;;;;;4.30;3.30;;;2.50;99.90;1.50;100498;;;;577024;243;24165;-77
2023/03/03 06:45:45;;;;;;;8.20;4.63;;;2.40;99.90;1.50;100480;;;;580645;243;24074;-77
2023/03/03 06:48:16;;;;;;;6.27;2.77;;;2.50;99.90;1.50;100480;;;;577173;243;24107;-74
2023/03/03 06:50:41;;;;;;;1.70;1.60;;;2.50;99.90;1.90;100478;;;;580215;243;24071;-75
2023/03/03 06:53:12;;;;;;;10.80;4.77;;;2.80;99.90;3.20;100479;;;;576940;244;24073;-76
2023/03/03 06:55:44;;;;;;;6.03;3.63;;;5.40;99.90;5.10;100494;;;;576561;244;24061;-78
2023/03/03 06:58:08;;;;;;;7.17;4.63;;;5.40;99.90;6.30;100494;;;;579537;244;24068;-77
2023/03/03 07:00:36;;;;;;;6.93;5.13;;;6.60;99.90;7.70;100506;;;;588423;243;24090;-74
2023/03/03 07:03:16;;;;;;;9.13;6.03;;;7.90;99.90;8.90;100506;;;;579243;244;24080;-76
2023/03/03 07:05:47;;;;;;;10.40;6.87;;;9.10;99.90;10.70;100510;;;;576286;244;24064;-74
2023/03/03 07:08:15;;;;;;;8.77;3.87;;;10.80;99.90;12.10;100510;;;;576770;244;24093;-78
2023/03/03 07:10:47;;;;;;;8.33;6.67;;;12.20;99.90;13.00;100532;;;;579302;244;24055;-73
2023/03/03 07:13:20;;;;;;;10.03;6.47;;;13.30;99.90;13.90;100525;;;;576579;244;24068;-76
2023/03/03 07:15:47;;;;;;;7.37;6.33;;;14.30;99.90;14.70;100522;;;;579389;244;24052;-74
2023/03/03 07:18:32;;;;;;;10.03;5.93;;;15.10;99.90;15.30;100530;;;;577094;244;24074;-78
2023/03/03 07:20:58;;;;;;;6.73;5.67;;;15.70;96.70;14.90;100539;;;;579125;244;24067;-77
2023/03/03 07:23:28;;;;;;;10.00;6.60;;;15.60;93.80;14.60;100527;;;;579046;244;24090;-74
2023/03/03 07:25:56;;;;;;;7.00;6.13;;;15.40;92.90;13.60;100530;;;;578964;244;24222;-73
2023/03/03 07:28:24;;;;;;;6.17;5.50;;;14.80;91.80;12.30;100524;;;;579099;244;24141;-74
2023/03/03 07:30:52;;;;;;;6.90;5.27;;;13.70;93.30;11.60;100519;;;;579413;244;24056;-77
2023/03/03 07:33:29;;;;;;;7.43;6.27;;;12.70;95.60;11.50;100524;;;;577286;244;24062;-76
2023/03/03 07:35:57;;;;;;;8.77;5.60;;;12.40;97.60;11.60;100525;;;;579250;244;24113;-75
2023/03/03 07:38:34;;;;;;;7.00;5.53;;;12.30;97.60;11.70;100530;;;;576877;244;24059;-76
2023/03/03 07:41:02;;;;;;;7.00;5.73;;;12.30;97.60;11.80;100531;;;;579395;244;24154;-75
2023/03/03 07:43:37;;;;;;;8.00;6.03;;;12.70;98.70;12.30;100533;;;;576844;244;24078;-76
2023/03/03 07:46:11;;;;;;;7.27;5.87;;;12.80;98.70;12.90;100537;;;;578976;244;24064;-76
2023/03/03 07:48:39;;;;;;;8.70;6.20;;;13.40;97.80;13.20;100529;;;;579147;244;24059;-74
2023/03/03 07:51:21;;;;;;;7.03;5.70;;;13.80;95.50;13.20;100530;;;;579042;244;24115;-75
2023/03/03 07:53:50;;;;;;;8.50;6.33;;;13.80;94.20;13.20;100531;;;;578428;244;24091;-73
2023/03/03 07:56:30;;;;;;;7.17;5.27;;;13.80;93.50;13.10;100538;;;;580743;243;24066;-74
2023/03/03 07:59:02;;;;;;;8.60;5.27;;;13.80;93.50;13.20;100533;;;;580217;243;24159;-73
2023/03/03 08:01:41;;;;;;;5.53;4.80;;;13.90;93.90;13.70;100536;;;;577568;243;24055;-76
2023/03/03 08:04:18;;;;;;;6.30;5.17;;;14.20;93.00;13.40;100533;;;;579917;244;24067;-75
2023/03/03 08:06:55;;;;;;;8.13;5.43;;;14.20;92.30;12.90;100533;;;;577498;244;24055;-75
2023/03/03 08:09:38;;;;;;;6.17;5.30;;;13.80;92.00;12.10;100526;;;;576410;244;24100;-76
2023/03/03 08:12:27;;;;;;;7.17;5.60;;;13.10;92.30;11.50;100531;;;;579607;244;24095;-77
2023/03/03 08:14:55;;;;;;;7.67;5.10;;;12.50;93.70;11.50;100519;;;;579705;243;24049;-78
2023/03/03 08:17:26;;;;;;;6.90;6.20;;;12.20;95.60;12.20;100524;;;;571594;244;35239;-77
2023/03/03 08:19:51;;;;;;;6.10;5.40;;;12.60;95.50;12.70;100526;;;;578494;244;24071;-75
2023/03/03 08:22:25;;;;;;;8.47;5.97;;;13.30;93.50;12.80;100520;;;;578695;244;24068;-74
2023/03/03 08:24:53;;;;;;;6.80;5.67;;;13.30;93.50;12.80;100516;;;;579708;244;24052;-76
2023/03/03 08:27:28;;;;;;;9.70;6.07;;;13.50;93.10;12.60;100524;;;;579350;244;24075;-76
2023/03/03 08:29:51;;;;;;;7.53;6.03;;;13.40;92.30;12.80;100523;;;;576792;244;24096;-75
2023/03/03 08:32:19;;;;;;;8.57;5.40;;;13.50;93.30;13.10;100521;;;;579457;244;24080;-76
2023/03/03 08:34:47;;;;;;;6.80;5.30;;;13.80;92.60;13.30;100513;;;;579521;244;24107;-78
2023/03/03 08:37:15;;;;;;;8.93;4.80;;;14.00;91.10;13.00;100522;;;;579483;244;24049;-77
2023/03/03 08:39:44;;;;;;;5.60;4.87;;;13.80;90.70;12.40;100521;;;;579087;244;24103;-75
2023/03/03 08:42:12;;;;;;;5.93;5.17;;;13.30;92.70;12.50;100528;;;;578867;244;24062;-76
2023/03/03 08:44:40;;;;;;;5.70;5.10;;;13.20;92.60;13.10;100526;;;;579198;244;24068;-73
2023/03/03 08:47:08;;;;;;;7.07;5.13;;;13.70;92.60;14.10;100534;;;;579008;244;24158;-78
2023/03/03 08:49:36;;;;;;;6.73;4.70;;;14.60;90.90;14.50;100534;;;;579136;244;24058;-77
2023/03/03 08:52:03;;;;;;;9.00;5.47;;;15.00;88.40;14.30;100527;;;;578963;244;24074;-74
2023/03/03 08:54:34;;;;;;;4.90;4.50;;;15.10;86.50;13.80;100539;;;;579155;244;24150;-76
2023/03/03 08:57:00;;;;;;;8.47;6.03;;;14.30;87.10;13.20;100528;;;;578918;244;24186;-74
2023/03/03 08:59:29;;;;;;;6.80;4.90;;;14.00;88.40;13.10;100542;;;;579461;244;24101;-76
2023/03/03 09:01:57;;;;;;;7.17;5.17;;;13.90;88.30;12.90;100541;;;;579465;244;24071;-77
2023/03/03 09:04:25;;;;;;;7.00;5.47;;;13.80;90.00;13.20;100531;;;;579514;244;24065;-77
2023/03/03 09:06:52;;;;;;;5.77;4.73;;;13.90;89.80;13.10;100541;;;;580345;243;24071;-76
2023/03/03 09:09:20;;;;;;;6.03;4.97;;;13.90;88.50;12.90;100539;;;;580702;243;24094;-74
2023/03/03 09:11:48;;;;;;;7.03;5.43;;;13.70;88.70;12.70;100530;;;;580362;243;24112;-73
2023/03/03 09:14:16;;;;;;;7.03;5.07;;;13.60;89.20;12.80;100538;;;;579968;243;24060;-73
2023/03/03 09:16:53;;;;;;;7.60;5.13;;;13.60;89.10;12.70;100537;;;;577310;244;24086;-75
2023/03/03 09:19:24;;;;;;;7.17;5.00;;;13.50;89.60;12.70;100537;;;;577488;244;24053;-77
2023/03/03 09:21:53;;;;;;;5.47;4.53;;;13.50;90.00;13.20;100533;;;;579625;244;24060;-73
2023/03/03 09:24:26;;;;;;;5.37;4.80;;;13.90;89.00;13.40;100528;;;;579619;244;24064;-73
2023/03/03 09:26:54;;;;;;;8.37;5.33;;;14.20;87.00;13.10;100532;;;;576805;244;24089;-75
2023/03/03 09:29:25;;;;;;;6.73;5.50;;;14.00;86.70;12.70;100525;;;;579443;244;24114;-75
2023/03/03 09:31:56;;;;;;;4.80;4.30;;;13.70;86.80;12.10;100524;;;;577044;244;24287;-77
2023/03/03 09:34:23;;;;;;;8.10;5.50;;;13.20;88.20;11.80;100526;;;;579618;244;24058;-76
2023/03/03 09:36:51;;;;;;;9.67;4.97;;;12.80;90.10;11.60;100532;;;;577338;244;24089;-77
2023/03/03 09:39:22;;;;;;;4.87;3.73;;;12.50;90.30;11.20;100521;;;;579583;244;24087;-77
2023/03/03 09:42:17;;;;;;;7.90;5.13;;;11.90;91.80;10.80;100524;;;;579062;244;24062;-76
2023/03/03 09:45:16;;;;;;;4.90;4.40;;;11.80;91.80;10.90;100529;;;;577672;244;24096;-77
2023/03/03 09:48:20;;;;;;;7.80;4.17;;;11.80;92.50;11.10;100538;;;;579502;244;24045;-75
2023/03/03 09:51:12;;;;;;;6.00;4.07;;;12.00;92.40;11.00;100540;;;;579422;244;24104;-78
2023/03/03 09:53:46;;;;;;;6.60;4.67;;;11.90;91.90;10.70;100523;;;;578694;244;24092;-74
2023/03/03 09:56:17;;;;;;;6.53;4.57;;;11.70;92.20;10.40;100512;;;;576907;244;24061;-77
2023/03/03 09:58:45;;;;;;;11.17;5.00;;;11.30;93.50;10.10;100509;;;;571917;244;24117;-73
2023/03/03 10:01:37;;;;;;;6.60;4.00;;;11.30;93.20;10.10;100504;;;;579074;244;24058;-77
2023/03/03 10:04:14;;;;;;;7.97;4.27;;;11.30;93.70;10.70;100513;;;;579195;244;24072;-76
2023/03/03 10:06:54;;;;;;;8.87;6.03;;;11.80;93.30;11.60;100511;;;;571611;244;35107;-74
2023/03/03 10:09:34;;;;;;;6.60;4.87;;;12.60;92.60;12.40;100509;;;;578848;244;24083;-78
2023/03/03 10:12:14;;;;;;;5.90;4.63;;;13.50;91.00;13.00;100513;;;;576737;244;24056;-77
2023/03/03 10:15:19;;;;;;;6.20;5.47;;;14.80;86.90;13.40;100511;;;;579063;244;24091;-76
2023/03/03 10:17:56;;;;;;;6.33;5.23;;;14.70;86.80;13.60;100502;;;;579973;243;24098;-76
2023/03/03 10:20:35;;;;;;;9.37;5.37;;;15.10;83.60;13.70;100500;;;;580522;243;24065;-76
2023/03/03 10:23:22;;;;;;;7.68;5.70;;;15.10;83.50;13.90;100509;;;;574961;243;35117;-76
2023/03/03 10:26:04;;;;;;;5.70;5.20;;;15.30;83.10;14.20;100502;;;;578228;243;24071;-76
2023/03/03 10:28:56;;;;;;;7.23;5.00;;;15.60;82.00;14.50;100504;;;;587309;244;24113;-76
2023/03/03 10:31:42;;;;;;;6.10;4.77;;;15.90;80.00;14.60;100503;;;;577055;244;24103;-76
2023/03/03 10:34:50;;;;;;;9.37;4.97;;;16.10;78.60;14.50;100508;;;;575179;244;24082;-76
2023/03/03 10:37:51;;;;;;;5.63;5.13;;;16.20;78.00;14.00;100511;;;;579855;244;24088;-78
2023/03/03 10:40:27;;;;;;;5.97;4.93;;;14.60;79.00;12.60;100505;;;;577061;244;24068;-75
2023/03/03 10:43:13;;;;;;;8.07;4.87;;;14.60;79.00;11.30;100512;;;;577060;244;24052;-74
2023/03/03 10:45:52;;;;;;;8.97;5.00;;;13.30;82.70;9.90;100514;;;;578903;244;24084;-75
2023/03/03 10:48:38;;;;;;;7.00;4.43;;;11.70;87.10;9.00;100509;;;;575437;244;24117;-75
2023/03/03 10:51:18;;;;;;;7.27;4.40;;;10.50;91.00;8.40;100498;;;;574788;244;24125;-77
2023/03/03 10:53:58;;;;;;;7.23;4.77;;;9.70;93.60;8.10;100497;;;;579137;244;24141;-76
2023/03/03 10:56:48;;;;;;;11.43;4.90;;;8.80;97.40;7.80;100498;;;;587237;244;24108;-77
2023/03/03 10:59:44;;;;;;;3.53;3.13;;;8.70;97.40;7.40;100498;;;;579226;244;24074;-76
2023/03/03 11:02:48;;;;;;;6.87;3.20;;;8.40;99.10;6.90;100504;;;;575395;244;24090;-74
2023/03/03 11:05:28;;;;;;;3.53;2.33;;;7.80;99.90;6.50;100502;;;;570402;247;24126;-75
2023/03/03 11:07:56;;;;;;;4.20;3.27;;;7.40;99.90;6.20;100503;;;;570515;247;24116;-76
2023/03/03 11:10:45;;;;;;;4.70;3.40;;;7.10;99.90;5.90;100497;;;;559182;251;24120;-74
2023/03/03 11:13:23;;;;;;;7.33;2.60;;;6.80;99.90;5.60;100494;;;;571621;246;24160;-74
2023/03/03 11:16:09;;;;;;;4.83;3.13;;;6.50;99.90;5.40;100494;;;;578647;244;24118;-76
2023/03/03 11:18:38;;;;;;;3.00;2.00;;;6.30;99.90;5.30;100495;;;;578041;243;24088;-74
2023/03/03 11:21:17;;;;;;;4.67;2.70;;;6.10;99.90;5.10;100482;;;;587687;244;24064;-74
2023/03/03 11:24:25;;;;;;;4.47;3.07;;;6.00;99.90;5.00;100484;;;;579350;244;24039;-77
2023/03/03 11:27:11;;;;;;;6.30;2.37;;;5.80;99.90;4.90;100474;;;;579679;244;24044;-76
2023/03/03 11:30:03;;;;;;;2.90;2.33;;;5.70;99.90;4.80;100479;;;;580273;243;24047;-74
2023/03/03 11:33:04;;;;;;;1.83;1.73;;;5.70;99.90;4.80;100470;;;;580370;243;24076;-76